Time;durP1;ratioP1;P1;durP2;ratioP2;P2;SDS_P1;SDS_P2;PMS_P1;PMS_P2;Temp;Humidity;BMP_temperature;BMP_pressure;BME280_temperature;BME280_humidity;BME280_pressure;Samples;Min_cycle;Max_cycle;Signal;HPM_P1;HPM_P2
2023/03/31 00:00:10;;;;;;;23.62;15.00;;;;;;;11.68;67.67;99385.06;7630433;32;40875;-84
2023/03/31 00:04:30;;;;;;;21.30;13.90;;;;;;;11.73;67.63;99370.50;7630234;32;37790;-85
2023/03/31 00:08:50;;;;;;;25.12;14.30;;;;;;;11.87;67.24;99376.94;7630282;32;37348;-84
2023/03/31 00:13:07;;;;;;;22.87;14.32;;;;;;;11.95;67.31;99364.56;7630123;32;39693;-84
2023/03/31 00:17:23;;;;;;;23.87;14.23;;;;;;;12.02;66.97;99363.13;7629819;32;40200;-84
2023/03/31 00:21:41;;;;;;;21.37;13.13;;;;;;;12.12;66.43;99361.37;7629560;32;38131;-84
2023/03/31 00:25:57;;;;;;;22.48;13.13;;;;;;;11.83;67.91;99352.13;7614652;32;37916;-84
2023/03/31 00:30:14;;;;;;;23.65;13.62;;;;;;;11.86;68.13;99355.38;7603686;32;39962;-84
2023/03/31 00:34:31;;;;;;;22.55;13.60;;;;;;;11.96;67.76;99358.00;7606029;32;40784;-84
2023/03/31 00:38:47;;;;;;;21.15;12.15;;;;;;;11.94;67.90;99355.56;7607129;32;37902;-84
2023/03/31 00:43:18;;;;;;;21.77;13.35;;;;;;;12.00;67.84;99346.22;7607136;32;37141;-83
2023/03/31 00:47:38;;;;;;;20.73;12.05;;;;;;;11.94;67.98;99343.84;7617101;32;39362;-84
2023/03/31 00:52:17;;;;;;;18.87;12.40;;;;;;;11.97;67.78;99344.06;7631024;32;40006;-83
2023/03/31 00:56:38;;;;;;;21.80;11.93;;;;;;;11.89;68.08;99346.59;7642335;32;37761;-83
2023/03/31 01:00:56;;;;;;;19.25;11.65;;;;;;;11.86;68.51;99347.19;7643931;32;37305;-83
2023/03/31 01:05:14;;;;;;;18.85;11.18;;;;;;;11.78;68.91;99340.41;7633002;32;40221;-84
2023/03/31 01:09:33;;;;;;;23.48;11.75;;;;;;;11.93;68.50;99323.88;7643722;32;39748;-83
2023/03/31 01:13:51;;;;;;;21.65;12.00;;;;;;;12.13;67.88;99335.69;7632759;32;37642;-83
2023/03/31 01:18:11;;;;;;;19.23;11.43;;;;;;;11.97;68.18;99332.31;7643510;32;37935;-85
2023/03/31 01:22:53;;;;;;;19.25;11.20;;;;;;;11.80;68.93;99330.03;7617332;32;40146;-84
2023/03/31 01:27:44;;;;;;;18.30;10.30;;;;;;;11.95;67.93;99335.34;7615873;32;40024;-85
2023/03/31 01:32:25;;;;;;;20.40;11.32;;;;;;;11.81;68.46;99329.75;7632691;32;37995;-86
2023/03/31 01:37:16;;;;;;;21.60;11.63;;;;;;;11.82;68.36;99331.37;7632707;32;37194;-82
2023/03/31 01:41:54;;;;;;;18.10;11.27;;;;;;;11.76;68.17;99350.81;7631550;32;39395;-82
2023/03/31 01:46:29;;;;;;;18.52;10.50;;;;;;;11.86;67.65;99341.72;7631205;32;39924;-83
2023/03/31 01:50:50;;;;;;;17.87;10.20;;;;;;;11.87;67.21;99327.78;7640722;32;38681;-83
2023/03/31 01:55:08;;;;;;;17.58;10.55;;;;;;;11.81;66.93;99331.66;7632431;32;37939;-85
2023/03/31 01:59:39;;;;;;;16.65;10.30;;;;;;;11.76;66.58;99335.28;7643504;32;39556;-83
2023/03/31 02:04:07;;;;;;;20.30;10.80;;;;;;;11.72;67.05;99342.41;7642343;32;40005;-84
2023/03/31 02:08:28;;;;;;;15.90;9.90;;;;;;;11.59;66.86;99327.53;7642308;32;37932;-84
2023/03/31 02:12:45;;;;;;;16.15;9.80;;;;;;;11.62;66.06;99326.97;7632301;32;37161;-83
2023/03/31 02:17:03;;;;;;;19.17;10.68;;;;;;;11.70;65.49;99327.44;7629825;32;39462;-84
2023/03/31 02:21:21;;;;;;;16.35;9.90;;;;;;;11.61;65.62;99314.41;7616999;32;40059;-85
2023/03/31 02:25:56;;;;;;;17.60;9.60;;;;;;;11.46;65.72;99311.84;7616853;32;36870;-83
2023/03/31 02:30:13;;;;;;;16.10;9.63;;;;;;;11.34;65.45;99320.41;7616199;32;37229;-84
2023/03/31 02:34:29;;;;;;;17.15;9.63;;;;;;;11.38;65.62;99304.28;7606070;32;39387;-83
2023/03/31 02:39:17;;;;;;;17.55;8.90;;;;;;;11.37;65.81;99308.13;7616901;32;40616;-84
2023/03/31 02:43:33;;;;;;;16.40;9.05;;;;;;;11.27;65.67;99309.84;7604644;32;38636;-83
2023/03/31 02:47:49;;;;;;;16.05;9.00;;;;;;;11.11;66.33;99307.53;7621732;32;37230;-83
2023/03/31 02:52:28;;;;;;;13.10;8.93;;;;;;;11.44;64.30;99282.09;7630557;32;40008;-83
2023/03/31 02:57:22;;;;;;;14.10;8.45;;;;;;;11.37;63.83;99280.84;7616599;32;39947;-84
2023/03/31 03:01:38;;;;;;;;;;;;;;;11.19;63.49;99288.66;7606261;32;37704;-83
2023/03/31 03:06:16;;;;;;;11.68;7.28;;;;;;;11.07;64.05;99290.94;7605709;32;36687;-81
2023/03/31 03:11:06;;;;;;;13.07;7.93;;;;;;;10.90;64.33;99297.66;7605545;32;39129;-83
2023/03/31 03:16:12;;;;;;;13.32;8.15;;;;;;;10.86;64.16;99304.75;7578643;32;39810;-85
2023/03/31 03:20:32;;;;;;;14.32;7.68;;;;;;;10.84;64.68;99315.13;7598842;32;38750;-85
2023/03/31 03:24:49;;;;;;;17.35;8.52;;;;;;;10.87;65.11;99308.31;7621242;32;37912;-83
2023/03/31 03:29:05;;;;;;;14.18;8.27;;;;;;;10.48;66.48;99299.03;7631241;32;39388;-83
2023/03/31 03:33:23;;;;;;;11.73;6.93;;;;;;;10.38;67.83;99299.09;7631089;32;39629;-84
2023/03/31 03:37:40;;;;;;;11.43;7.05;;;;;;;10.80;66.50;99300.44;7606527;32;38718;-84
2023/03/31 03:41:56;;;;;;;11.70;7.70;;;;;;;10.66;66.78;99315.84;7605001;32;37123;-83
2023/03/31 03:46:12;;;;;;;11.15;6.80;;;;;;;10.65;66.49;99315.00;7604829;32;39465;-83
2023/03/31 03:50:29;;;;;;;11.85;7.32;;;;;;;10.69;66.83;99301.63;7604680;32;40840;-85
2023/03/31 03:54:45;;;;;;;13.65;7.75;;;;;;;10.44;66.68;99311.62;7604463;32;37862;-84
2023/03/31 03:59:02;;;;;;;14.95;7.97;;;;;;;10.60;66.12;99295.16;7604591;32;36767;-83
2023/03/31 04:03:18;;;;;;;15.43;7.45;;;;;;;10.49;66.38;99299.87;7604327;32;39948;-84
2023/03/31 04:07:34;;;;;;;11.70;7.45;;;;;;;10.59;66.28;99296.25;7604829;32;39933;-84
2023/03/31 04:11:51;;;;;;;12.88;6.70;;;;;;;10.58;65.78;99295.44;7607562;32;37843;-85
2023/03/31 04:16:07;;;;;;;9.43;5.87;;;;;;;10.46;65.85;99284.09;7607433;32;37857;-84
2023/03/31 04:20:29;;;;;;;11.30;5.78;;;;;;;10.43;65.82;99280.00;7607541;32;39964;-84
2023/03/31 04:24:51;;;;;;;9.35;5.45;;;;;;;10.55;65.34;99285.09;7631224;32;40216;-84
2023/03/31 04:29:09;;;;;;;10.25;5.65;;;;;;;10.53;65.22;99285.37;7644226;32;37853;-84
2023/03/31 04:33:25;;;;;;;9.55;4.95;;;;;;;10.64;64.98;99285.31;7633500;32;37355;-85
2023/03/31 04:37:41;;;;;;;9.60;5.62;;;;;;;10.81;63.97;99285.69;7644652;32;40056;-85
2023/03/31 04:41:59;;;;;;;11.73;5.90;;;;;;;10.74;63.66;99285.22;7633502;32;39641;-84
2023/03/31 04:46:15;;;;;;;8.80;5.37;;;;;;;10.63;63.89;99279.03;7644309;32;37910;-84
2023/03/31 04:50:32;;;;;;;9.98;5.30;;;;;;;10.66;63.62;99285.84;7633377;32;37728;-84
2023/03/31 04:54:48;;;;;;;9.32;5.15;;;;;;;10.58;63.98;99281.00;7631921;32;39416;-84
2023/03/31 04:59:04;;;;;;;9.60;5.07;;;;;;;10.68;63.82;99276.28;7633154;32;39994;-85
2023/03/31 05:03:21;;;;;;;8.75;4.78;;;;;;;10.74;63.46;99273.50;7632910;32;37901;-86
2023/03/31 05:07:38;;;;;;;11.55;5.35;;;;;;;10.68;63.83;99275.47;7633143;32;37128;-85
2023/03/31 05:11:55;;;;;;;7.90;4.93;;;;;;;10.87;63.30;99264.69;7633120;32;39362;-84
2023/03/31 05:16:13;;;;;;;7.72;4.22;;;;;;;10.58;64.41;99264.66;7610708;32;40761;-83
2023/03/31 05:20:30;;;;;;;6.30;4.60;;;;;;;10.95;63.56;99260.50;7605971;32;37029;-84
2023/03/31 05:24:46;;;;;;;7.25;4.53;;;;;;;10.85;64.00;99256.78;7606722;32;37588;-83
2023/03/31 05:29:03;;;;;;;7.95;4.40;;;;;;;10.74;64.43;99266.12;7606699;32;40115;-85
2023/03/31 05:33:19;;;;;;;10.90;5.28;;;;;;;10.95;63.76;99260.50;7606718;32;40015;-84
2023/03/31 05:37:35;;;;;;;11.15;5.40;;;;;;;11.12;63.11;99258.16;7606562;32;37947;-83
2023/03/31 05:41:51;;;;;;;7.90;4.87;;;;;;;11.22;62.91;99252.59;7606635;32;37115;-84
2023/03/31 05:46:08;;;;;;;12.20;5.07;;;;;;;11.24;63.01;99246.84;7607159;32;39335;-84
2023/03/31 05:50:25;;;;;;;8.93;4.62;;;;;;;11.40;63.05;99256.50;7606531;32;40818;-85
2023/03/31 05:54:43;;;;;;;7.28;4.47;;;;;;;11.54;63.17;99258.50;7612618;32;38504;-83
2023/03/31 05:59:00;;;;;;;9.77;4.43;;;;;;;11.76;62.83;99264.28;7632503;32;37337;-83
2023/03/31 06:03:16;;;;;;;9.50;4.82;;;;;;;12.06;62.52;99253.28;7632611;32;39415;-84
2023/03/31 06:07:32;;;;;;;8.13;4.82;;;;;;;12.21;62.50;99256.59;7631237;32;40110;-84
2023/03/31 06:11:49;;;;;;;7.35;4.80;;;;;;;12.23;63.05;99250.81;7615642;32;37959;-85
2023/03/31 06:16:06;;;;;;;12.88;7.40;;;;;;;12.48;62.75;99246.06;7606833;32;37181;-83
2023/03/31 06:20:23;;;;;;;17.48;9.23;;;;;;;12.66;61.80;99241.66;7606265;32;39389;-85
2023/03/31 06:24:43;;;;;;;11.90;7.35;;;;;;;12.87;62.47;99253.09;7606181;32;40832;-84
2023/03/31 06:28:59;;;;;;;10.30;5.55;;;;;;;12.84;62.62;99251.75;7605658;32;38032;-82
2023/03/31 06:33:15;;;;;;;11.15;5.35;;;;;;;13.07;62.61;99255.47;7605708;32;38152;-84
2023/03/31 06:37:32;;;;;;;10.93;5.72;;;;;;;13.19;61.51;99254.16;7606201;32;39841;-84
2023/03/31 06:41:48;;;;;;;8.82;4.85;;;;;;;13.37;59.97;99244.28;7609811;32;40666;-84
2023/03/31 06:46:06;;;;;;;7.65;4.50;;;;;;;13.51;58.94;99248.63;7608075;32;38702;-84
2023/03/31 06:50:23;;;;;;;6.25;3.87;;;;;;;13.50;57.49;99240.72;7613946;32;35991;-84
2023/03/31 06:54:39;;;;;;;12.50;5.70;;;;;;;13.30;59.25;99245.47;7610567;32;39392;-84
2023/03/31 06:58:57;;;;;;;10.23;5.65;;;;;;;13.49;60.51;99239.13;7604759;32;39446;-82
2023/03/31 07:03:17;;;;;;;9.45;5.35;;;;;;;13.72;60.62;99245.47;7605399;32;38064;-82
2023/03/31 07:07:35;;;;;;;12.13;5.72;;;;;;;13.86;60.76;99227.09;7617100;32;36732;-83
2023/03/31 07:11:51;;;;;;;7.87;4.78;;;;;;;14.22;60.19;99223.53;7631083;32;39429;-84
2023/03/31 07:16:13;;;;;;;6.50;4.43;;;;;;;14.13;59.11;99225.41;7628912;32;40794;-85
2023/03/31 07:20:29;;;;;;;8.57;4.70;;;;;;;14.24;58.34;99215.81;7612242;32;37845;-84
2023/03/31 07:24:46;;;;;;;9.75;4.93;;;;;;;14.26;58.34;99210.84;7604982;32;36763;-84
2023/03/31 07:29:02;;;;;;;8.38;5.03;;;;;;;14.22;59.34;99212.59;7604531;32;38983;-82
2023/03/31 07:33:18;;;;;;;10.35;5.95;;;;;;;14.50;57.89;99211.66;7609819;32;40026;-85
2023/03/31 07:37:42;;;;;;;9.60;5.10;;;;;;;14.62;57.76;99199.03;7608352;32;37870;-82
2023/03/31 07:41:58;;;;;;;8.02;4.68;;;;;;;14.90;55.95;99198.06;7607559;32;37741;-85
2023/03/31 07:46:18;;;;;;;6.80;4.10;;;;;;;15.36;55.58;99192.09;7618861;32;40173;-86
2023/03/31 07:50:34;;;;;;;10.23;4.85;;;;;;;15.14;54.77;99186.69;7630120;32;39780;-86
2023/03/31 07:54:50;;;;;;;8.45;3.87;;;;;;;15.38;54.35;99187.13;7604640;32;38680;-85
2023/03/31 07:59:06;;;;;;;11.10;3.67;;;;;;;15.65;54.23;99174.25;7627481;32;37246;-84
2023/03/31 08:03:23;;;;;;;6.72;3.30;;;;;;;15.92;52.01;99166.91;7626269;32;39325;-86
2023/03/31 08:07:41;;;;;;;10.05;4.05;;;;;;;15.28;50.72;99165.44;7603391;32;40853;-83
2023/03/31 08:11:59;;;;;;;6.43;3.78;;;;;;;15.17;52.33;99158.62;7624228;32;38088;-84
2023/03/31 08:16:16;;;;;;;8.85;3.90;;;;;;;15.57;50.99;99144.81;7623082;32;35943;-82
2023/03/31 08:20:32;;;;;;;9.90;3.55;;;;;;;15.74;50.18;99139.34;7628296;32;40020;-84
2023/03/31 08:24:48;;;;;;;6.75;3.40;;;;;;;16.11;51.07;99125.34;7629271;32;39884;-83
2023/03/31 08:29:05;;;;;;;6.28;3.20;;;;;;;16.35;49.26;99119.31;7627573;32;37932;-84
2023/03/31 08:33:21;;;;;;;8.95;3.00;;;;;;;16.25;48.84;99125.16;7607181;32;37632;-83
2023/03/31 08:37:38;;;;;;;4.75;2.85;;;;;;;16.63;47.86;99113.41;7602602;32;39034;-84
2023/03/31 08:42:00;;;;;;;4.15;2.92;;;;;;;16.44;48.36;99111.03;7613615;32;41558;-84
2023/03/31 08:46:18;;;;;;;7.37;3.28;;;;;;;16.70;47.31;99097.19;7614101;32;38715;-85
2023/03/31 08:50:39;;;;;;;7.57;2.80;;;;;;;16.75;46.82;99087.94;7622514;32;37188;-84
2023/03/31 08:54:58;;;;;;;7.50;3.25;;;;;;;16.72;47.32;99083.91;7617827;32;39832;-85
2023/03/31 08:59:31;;;;;;;5.20;2.80;;;;;;;16.82;48.96;99072.53;7617804;32;39943;-84
2023/03/31 09:03:57;;;;;;;5.53;2.43;;;;;;;16.88;45.38;99074.00;7633637;32;37978;-78
2023/03/31 09:08:32;;;;;;;7.87;2.90;;;;;;;16.86;50.92;99068.00;7643808;32;37163;-76
2023/03/31 09:13:05;;;;;;;6.20;2.78;;;;;;;17.60;45.84;99051.97;7636046;32;39153;-75
2023/03/31 09:17:22;;;;;;;;;;;;;;;18.12;45.22;99047.97;7607135;32;40091;-74
2023/03/31 09:21:54;;;;;;;5.95;2.22;;;;;;;18.01;43.41;99044.03;7615316;32;38345;-74
2023/03/31 09:26:33;;;;;;;6.72;2.55;;;;;;;18.63;42.35;99022.88;7611483;32;38094;-69
2023/03/31 09:30:49;;;;;;;5.95;2.42;;;;;;;18.67;42.26;99018.28;7617220;32;39422;-75
2023/03/31 09:35:25;;;;;;;5.47;2.20;;;;;;;18.76;41.15;99007.12;7609257;32;40836;-74
2023/03/31 09:39:42;;;;;;;4.30;2.30;;;;;;;19.07;39.96;98989.97;7632544;32;37926;-74
2023/03/31 09:43:58;;;;;;;3.42;1.95;;;;;;;19.04;37.94;99001.72;7632777;32;36758;-73
2023/03/31 09:48:19;;;;;;;3.17;1.77;;;;;;;19.50;40.46;98982.13;7627501;32;39203;-85
2023/03/31 09:52:42;;;;;;;4.20;1.73;;;;;;;20.05;38.99;98979.72;7635935;32;40032;-84
2023/03/31 09:56:58;;;;;;;4.28;1.83;;;;;;;20.52;37.52;98961.50;7643282;32;37952;-84
2023/03/31 10:01:15;;;;;;;2.92;1.70;;;;;;;20.36;35.46;98964.28;7628706;32;37801;-87
2023/03/31 10:05:35;;;;;;;5.32;1.75;;;;;;;20.18;35.83;98948.06;7622711;32;39553;-86
2023/03/31 10:09:53;;;;;;;5.32;2.03;;;;;;;20.08;35.43;98949.37;7612973;32;40814;-83
2023/03/31 10:14:14;;;;;;;5.20;2.03;;;;;;;20.42;36.15;98937.94;7638014;32;36876;-85
2023/03/31 10:18:36;;;;;;;7.47;1.70;;;;;;;20.70;35.88;98926.78;7621628;32;37076;-82
2023/03/31 10:22:53;;;;;;;3.47;1.80;;;;;;;20.15;34.64;98921.09;7606319;32;40077;-86
2023/03/31 10:27:30;;;;;;;8.32;2.00;;;;;;;20.29;34.19;98909.56;7631272;32;40823;-86
2023/03/31 10:31:48;;;;;;;2.45;1.50;;;;;;;20.66;34.72;98914.00;7626389;32;37850;-83
2023/03/31 10:36:15;;;;;;;3.40;1.80;;;;;;;21.33;34.20;98900.78;7606044;32;37845;-82
2023/03/31 10:40:32;;;;;;;2.95;1.67;;;;;;;21.20;34.68;98907.66;7616534;32;39421;-83
2023/03/31 10:44:48;;;;;;;6.00;1.87;;;;;;;21.01;32.28;98900.16;7606589;32;40026;-82
2023/03/31 10:49:20;;;;;;;5.15;2.00;;;;;;;20.40;33.69;98901.50;7622921;32;37973;-84
2023/03/31 10:53:45;;;;;;;3.42;1.62;;;;;;;20.66;34.76;98889.88;7631086;32;38228;-82
2023/03/31 10:58:24;;;;;;;6.78;1.90;;;;;;;20.06;35.01;98882.53;7627147;32;40492;-83
2023/03/31 11:03:18;;;;;;;4.55;1.70;;;;;;;20.33;34.84;98881.97;7630548;32;40840;-83
2023/03/31 11:07:37;;;;;;;5.40;1.95;;;;;;;20.70;36.08;98878.91;7612808;32;38584;-79
2023/03/31 11:12:17;;;;;;;3.72;1.98;;;;;;;19.33;37.15;98890.09;7613504;32;37176;-76
2023/03/31 11:16:49;;;;;;;2.53;2.03;;;;;;;19.58;38.04;98872.59;7628685;32;39298;-75
2023/03/31 11:21:19;;;;;;;4.80;2.25;;;;;;;19.29;38.25;98863.50;7631581;32;40817;-85
2023/03/31 11:25:48;;;;;;;4.18;2.28;;;;;;;19.20;37.64;98849.84;7631358;32;36953;-84
2023/03/31 11:30:29;;;;;;;5.57;2.42;;;;;;;18.31;39.80;98854.31;7631399;32;37040;-85
2023/03/31 11:35:08;;;;;;;6.22;2.25;;;;;;;18.69;41.24;98831.00;7606200;32;39287;-82
2023/03/31 11:39:46;;;;;;;3.50;2.10;;;;;;;18.24;41.24;98825.69;7613100;32;40201;-77
2023/03/31 11:44:14;;;;;;;3.92;2.10;;;;;;;18.05;42.06;98815.25;7604428;32;38555;-76
2023/03/31 11:48:46;;;;;;;4.03;1.90;;;;;;;18.33;40.30;98796.03;7604978;32;37853;-76
2023/03/31 11:53:20;;;;;;;6.07;2.10;;;;;;;18.43;40.70;98790.03;7614058;32;39455;-75
2023/03/31 11:57:55;;;;;;;3.72;2.10;;;;;;;18.77;40.80;98780.38;7612183;32;39663;-76
2023/03/31 12:02:17;;;;;;;4.87;2.12;;;;;;;19.38;38.40;98755.56;7613056;32;37977;-85
2023/03/31 12:06:40;;;;;;;4.45;1.85;;;;;;;19.43;37.74;98764.41;7628824;32;37793;-83
2023/03/31 12:11:08;;;;;;;4.72;2.08;;;;;;;19.52;38.53;98755.94;7633696;32;39971;-85
2023/03/31 12:15:47;;;;;;;4.43;1.90;;;;;;;18.95;37.58;98764.34;7614878;32;40172;-85
2023/03/31 12:20:26;;;;;;;3.28;1.60;;;;;;;19.61;37.39;98748.28;7616951;32;38811;-84
2023/03/31 12:24:45;;;;;;;2.10;1.42;;;;;;;19.36;34.98;98731.06;7634042;32;38090;-84
2023/03/31 12:29:26;;;;;;;2.25;1.65;;;;;;;18.47;36.00;98751.50;7641158;32;40387;-84
2023/03/31 12:33:51;;;;;;;3.75;1.75;;;;;;;18.31;36.45;98760.50;7643048;32;40751;-86
2023/03/31 12:38:33;;;;;;;3.90;1.80;;;;;;;18.97;35.58;98721.75;7643526;32;38113;-85
2023/03/31 12:42:57;;;;;;;3.47;1.67;;;;;;;19.49;34.89;98726.25;7633303;32;37051;-85
2023/03/31 12:47:14;;;;;;;3.37;1.40;;;;;;;19.43;36.54;98708.31;7632929;32;39916;-86
2023/03/31 12:51:33;;;;;;;4.15;1.80;;;;;;;19.59;35.52;98683.44;7633086;32;40683;-85
2023/03/31 12:55:57;;;;;;;2.70;1.70;;;;;;;19.95;35.87;98665.72;7632832;32;36981;-86
2023/03/31 13:00:20;;;;;;;4.10;1.73;;;;;;;20.35;35.60;98661.81;7643955;32;36978;-84
2023/03/31 13:04:37;;;;;;;3.83;1.80;;;;;;;19.65;36.12;98655.16;7633126;32;39123;-84
2023/03/31 13:09:25;;;;;;;1.92;1.65;;;;;;;19.00;36.99;98657.53;7630068;32;40787;-85
2023/03/31 13:13:53;;;;;;;4.50;1.80;;;;;;;18.90;37.02;98661.59;7627286;32;38078;-83
2023/03/31 13:18:19;;;;;;;3.75;1.65;;;;;;;18.90;36.93;98651.37;7616228;32;37790;-85
2023/03/31 13:22:39;;;;;;;5.32;1.87;;;;;;;17.93;38.40;98654.19;7605911;32;40000;-83
2023/03/31 13:26:58;;;;;;;3.65;1.73;;;;;;;18.12;39.39;98634.25;7605066;32;40727;-82
2023/03/31 13:31:14;;;;;;;5.53;1.95;;;;;;;17.95;40.67;98629.81;7608484;32;37023;-85
2023/03/31 13:35:33;;;;;;;6.70;1.70;;;;;;;17.71;40.95;98624.34;7632363;32;37157;-85
2023/03/31 13:40:21;;;;;;;5.97;1.92;;;;;;;18.02;41.29;98626.47;7620669;32;40130;-80
2023/03/31 13:45:06;;;;;;;2.60;1.77;;;;;;;17.96;41.87;98601.09;7616151;32;40550;-83
2023/03/31 13:50:02;;;;;;;5.37;2.00;;;;;;;17.80;43.18;98590.00;7622650;32;37855;-84
2023/03/31 13:54:57;;;;;;;6.28;1.98;;;;;;;17.80;43.94;98589.19;7621359;32;37286;-85
2023/03/31 13:59:54;;;;;;;4.82;2.40;;;;;;;17.47;44.85;98601.19;7595792;32;39282;-84
2023/03/31 14:04:34;;;;;;;4.50;2.00;;;;;;;16.70;45.53;98618.38;7616058;32;40688;-85
2023/03/31 14:09:00;;;;;;;5.05;2.25;;;;;;;16.86;46.64;98593.75;7612220;32;38767;-85
2023/03/31 14:13:18;;;;;;;7.70;2.42;;;;;;;17.14;49.31;98565.53;7614127;32;37612;-84
2023/03/31 14:17:37;;;;;;;5.95;2.50;;;;;;;17.43;51.86;98567.22;7614519;32;38497;-83
2023/03/31 14:22:28;;;;;;;6.93;2.12;;;;;;;16.94;52.44;98565.31;7615151;32;39935;-85
2023/03/31 14:27:12;;;;;;;5.18;2.35;;;;;;;16.11;52.42;98540.50;7615290;32;38636;-85
2023/03/31 14:31:34;;;;;;;3.58;2.17;;;;;;;16.48;51.97;98524.09;7605412;32;37145;-84
2023/03/31 14:36:00;;;;;;;6.60;2.28;;;;;;;16.75;53.27;98515.50;7615776;32;40217;-85
2023/03/31 14:40:17;;;;;;;4.35;2.30;;;;;;;17.75;48.69;98501.25;7603851;32;39875;-82
2023/03/31 14:44:35;;;;;;;2.95;2.10;;;;;;;18.10;47.62;98495.12;7615912;32;38704;-79
2023/03/31 14:48:51;;;;;;;3.90;2.40;;;;;;;18.16;45.38;98483.47;7617220;32;37149;-86
2023/03/31 14:53:24;;;;;;;2.65;1.70;;;;;;;18.26;45.50;98473.84;7614693;32;39412;-85
2023/03/31 14:57:42;;;;;;;3.83;1.90;;;;;;;18.50;43.34;98470.13;7614926;32;39866;-86
2023/03/31 15:02:00;;;;;;;3.95;2.30;;;;;;;18.48;43.82;98468.87;7614350;32;39432;-84
2023/03/31 15:06:16;;;;;;;5.60;2.17;;;;;;;18.42;43.30;98478.56;7605620;32;36845;-85
2023/03/31 15:10:46;;;;;;;5.15;2.10;;;;;;;18.44;43.46;98462.47;7613136;32;37793;-84
2023/03/31 15:15:06;;;;;;;6.93;2.50;;;;;;;18.71;44.20;98447.78;7613491;32;39972;-85
2023/03/31 15:19:32;;;;;;;7.55;2.67;;;;;;;18.92;43.04;98430.09;7614876;32;37713;-84
2023/03/31 15:23:52;;;;;;;4.28;2.12;;;;;;;19.34;42.15;98418.38;7614528;32;38010;-84
2023/03/31 15:28:12;;;;;;;3.55;1.92;;;;;;;19.45;42.40;98408.31;7621767;32;40048;-85
2023/03/31 15:32:38;;;;;;;4.75;1.95;;;;;;;19.52;42.72;98397.44;7621994;32;41033;-85
2023/03/31 15:36:56;;;;;;;5.55;2.12;;;;;;;19.67;42.42;98395.72;7615735;32;37981;-87
2023/03/31 15:41:15;;;;;;;10.57;2.80;;;;;;;19.57;42.19;98393.53;7625774;32;37353;-83
2023/03/31 15:45:45;;;;;;;4.40;2.10;;;;;;;19.24;42.37;98375.53;7616397;32;40074;-82
2023/03/31 15:50:11;;;;;;;3.95;2.10;;;;;;;19.46;41.82;98376.78;7622279;32;39915;-74
2023/03/31 15:54:33;;;;;;;5.00;1.98;;;;;;;19.31;43.95;98375.69;7617985;32;37851;-85
2023/03/31 15:59:02;;;;;;;7.40;2.83;;;;;;;18.99;42.56;98369.53;7623608;32;37817;-85
2023/03/31 16:03:37;;;;;;;7.53;2.50;;;;;;;19.02;42.63;98354.19;7612249;32;39066;-83
2023/03/31 16:07:56;;;;;;;9.18;2.62;;;;;;;18.75;42.54;98363.06;7616519;32;40972;-83
2023/03/31 16:12:23;;;;;;;4.60;2.45;;;;;;;18.66;42.31;98368.00;7632700;32;38079;-82
2023/03/31 16:16:44;;;;;;;5.78;2.40;;;;;;;18.60;42.10;98377.72;7630190;32;37792;-84
2023/03/31 16:21:02;;;;;;;5.43;2.42;;;;;;;18.30;42.87;98380.97;7617590;32;39432;-82
2023/03/31 16:25:21;;;;;;;6.32;2.75;;;;;;;18.13;43.30;98387.66;7609758;32;38886;-82
2023/03/31 16:29:38;;;;;;;7.32;2.78;;;;;;;17.21;44.95;98390.34;7607454;32;37875;-83
2023/03/31 16:33:55;;;;;;;4.57;2.40;;;;;;;17.47;44.30;98386.28;7613907;32;36886;-83
2023/03/31 16:38:15;;;;;;;3.55;2.45;;;;;;;17.01;43.36;98394.06;7624350;32;39285;-82
2023/03/31 16:42:31;;;;;;;4.55;2.05;;;;;;;16.68;44.41;98411.53;7633512;32;40828;-82
2023/03/31 16:46:48;;;;;;;5.20;2.20;;;;;;;15.79;46.17;98442.41;7632378;32;37722;-82
2023/03/31 16:51:04;;;;;;;14.77;2.95;;;;;;;15.74;46.39;98416.69;7633017;32;37107;-82
2023/03/31 16:55:21;;;;;;;3.75;2.40;;;;;;;16.08;46.46;98401.00;7627843;32;40182;-83
2023/03/31 16:59:38;;;;;;;8.02;2.72;;;;;;;16.04;45.81;98411.06;7621488;32;40697;-83
2023/03/31 17:03:55;;;;;;;7.18;3.20;;;;;;;15.56;48.39;98421.56;7629815;32;38025;-83
2023/03/31 17:08:12;;;;;;;9.00;2.97;;;;;;;14.90;52.40;98416.00;7616770;32;37172;-85
2023/03/31 17:12:28;;;;;;;7.97;3.53;;;;;;;15.63;51.99;98398.25;7616052;32;39460;-83
2023/03/31 17:16:45;;;;;;;4.70;3.00;;;;;;;15.26;53.81;98401.66;7615184;32;39898;-84
2023/03/31 17:21:09;;;;;;;8.27;2.87;;;;;;;15.01;54.58;98409.78;7632051;32;37936;-83
2023/03/31 17:25:26;;;;;;;9.13;2.97;;;;;;;14.66;54.15;98406.50;7615179;32;35471;-81
2023/03/31 17:29:42;;;;;;;5.72;3.00;;;;;;;15.01;53.24;98398.81;7633652;32;39924;-83
2023/03/31 17:33:58;;;;;;;8.23;3.17;;;;;;;14.83;52.80;98409.13;7632806;32;40083;-81
2023/03/31 17:38:18;;;;;;;8.88;3.85;;;;;;;14.72;53.83;98413.38;7631312;32;38766;-81
2023/03/31 17:42:34;;;;;;;5.47;2.80;;;;;;;15.09;52.41;98418.28;7612397;32;38093;-81
2023/03/31 17:46:52;;;;;;;5.87;3.35;;;;;;;15.17;52.09;98417.41;7609558;32;38396;-81
2023/03/31 17:51:16;;;;;;;7.93;3.00;;;;;;;14.88;52.92;98416.31;7632679;32;40792;-81
2023/03/31 17:55:33;;;;;;;7.57;2.95;;;;;;;14.79;53.25;98419.12;7632108;32;38592;-81
2023/03/31 17:59:50;;;;;;;8.07;3.00;;;;;;;14.78;53.49;98428.50;7632646;32;37742;-82
2023/03/31 18:04:06;;;;;;;6.82;3.10;;;;;;;15.07;52.66;98432.31;7632542;32;39151;-75
2023/03/31 18:08:23;;;;;;;6.40;3.17;;;;;;;15.15;52.92;98427.91;7631285;32;40750;-80
2023/03/31 18:12:40;;;;;;;5.93;3.08;;;;;;;15.18;51.90;98439.03;7632348;32;37985;-80
2023/03/31 18:16:56;;;;;;;5.32;3.20;;;;;;;15.27;51.80;98449.16;7621135;32;37056;-81
2023/03/31 18:21:13;;;;;;;9.38;3.70;;;;;;;14.84;53.80;98462.03;7605321;32;39919;-81
2023/03/31 18:25:29;;;;;;;7.97;3.37;;;;;;;15.05;54.22;98455.78;7628765;32;40812;-81
2023/03/31 18:29:46;;;;;;;7.78;3.55;;;;;;;14.73;57.17;98474.50;7605131;32;38715;-81
2023/03/31 18:34:02;;;;;;;8.48;4.35;;;;;;;14.52;58.29;98475.25;7605906;32;37708;-81
2023/03/31 18:38:18;;;;;;;10.18;4.20;;;;;;;14.03;58.01;98474.78;7608188;32;40045;-81
2023/03/31 18:42:35;;;;;;;10.60;3.80;;;;;;;14.17;56.90;98480.06;7631492;32;40824;-81
2023/03/31 18:46:51;;;;;;;5.68;3.33;;;;;;;13.81;56.21;98495.78;7630717;32;37906;-81
2023/03/31 18:51:08;;;;;;;3.70;2.33;;;;;;;13.48;58.32;98514.66;7617206;32;37801;-81
2023/03/31 18:55:24;;;;;;;4.05;2.05;;;;;;;13.12;58.38;98523.94;7631583;32;39295;-82
2023/03/31 18:59:41;;;;;;;3.17;2.40;;;;;;;13.55;55.96;98516.91;7630683;32;40530;-82
2023/03/31 19:03:57;;;;;;;4.78;2.50;;;;;;;12.84;57.33;98526.12;7617709;32;37946;-82
2023/03/31 19:08:13;;;;;;;4.22;2.03;;;;;;;12.68;57.48;98526.56;7604719;32;37099;-81
2023/03/31 19:12:30;;;;;;;5.57;2.00;;;;;;;12.92;56.71;98508.94;7605496;32;40465;-81
2023/03/31 19:16:46;;;;;;;2.55;1.65;;;;;;;12.80;56.91;98523.22;7604808;32;40586;-81
2023/03/31 19:21:03;;;;;;;4.55;1.90;;;;;;;13.01;55.12;98530.84;7611743;32;37119;-81
2023/03/31 19:25:20;;;;;;;2.35;1.52;;;;;;;12.98;54.51;98540.47;7625553;32;37063;-80
2023/03/31 19:29:36;;;;;;;1.42;1.33;;;;;;;12.43;55.82;98549.12;7603368;32;39326;-81
2023/03/31 19:33:56;;;;;;;2.75;1.40;;;;;;;12.12;57.51;98541.72;7607677;32;38859;-81
2023/03/31 19:38:13;;;;;;;1.60;1.45;;;;;;;12.71;55.88;98525.94;7603978;32;37639;-82
2023/03/31 19:42:31;;;;;;;2.37;1.48;;;;;;;12.80;56.25;98523.22;7630120;32;37207;-82
2023/03/31 19:46:49;;;;;;;2.45;1.45;;;;;;;12.98;55.25;98524.06;7630677;32;40045;-83
2023/03/31 19:51:07;;;;;;;2.15;1.33;;;;;;;12.35;57.25;98523.37;7629846;32;39034;-83
2023/03/31 19:55:24;;;;;;;6.70;1.67;;;;;;;12.09;58.16;98518.59;7630510;32;37709;-81
2023/03/31 19:59:40;;;;;;;2.03;1.48;;;;;;;12.30;57.80;98516.13;7630230;32;38421;-83
2023/03/31 20:03:57;;;;;;;2.67;1.30;;;;;;;12.46;56.99;98507.50;7629904;32;39276;-83
2023/03/31 20:08:13;;;;;;;2.78;1.87;;;;;;;12.17;57.34;98497.88;7630140;32;40889;-82
2023/03/31 20:12:30;;;;;;;5.25;3.10;;;;;;;12.20;57.59;98497.25;7615554;32;37817;-81
2023/03/31 20:16:49;;;;;;;5.12;3.87;;;;;;;12.28;57.36;98493.78;7603771;32;38033;-82
2023/03/31 20:21:12;;;;;;;1.20;1.20;;;;;;;12.31;56.98;98484.91;7604152;32;38336;-83
2023/03/31 20:25:28;;;;;;;2.40;1.50;;;;;;;12.17;56.25;98478.75;7603149;32;39968;-82
2023/03/31 20:29:45;;;;;;;2.10;1.35;;;;;;;12.70;55.23;98469.63;7602721;32;38121;-84